모두
Kingscote Airport (Kingscote (Kangaroo Island), South Australia) KGC 기상
|
Kingscote (Kangaroo Island), South Australia (KGC / YKSC)
맑은 하늘
바람이 붐 |
|
18 °C |
KGC 터미널 지역 예측
| Date | Time (ACST) | Flight Rules | Wind Dir. | Speed | Type | Height AGL (ft) | Visibility | Remarks | ||||||
|---|---|---|---|---|---|---|---|---|---|---|---|---|---|---|
최근 KGC METAR 이력
| Date | Time (ACST) | Flight Rules | Wind Dir. | Speed | Type | Height AGL (ft) | Visibility | Temp (°C) | Temp (°F) | Dew Point (°C) | Dew Point (°F) | Rel. Humid. | Pressure | Density Altitude | Remarks |
|---|---|---|---|---|---|---|---|---|---|---|---|---|---|---|---|
| 01-9월 | 10:30 | VFR | 340° | 16 kt | 10000 meters | 18° | 64° | 11° | 51° | 64% | 1015 mb | 331 ft | |||
| 01-9월 | 10:00 | VFR | 340° | 13 kt | Broken |
9,700 |
10000 meters | 18° | 64° | 12° | 53° | 68% | 1015 mb | 331 ft | |
| 01-9월 | 09:30 | VFR | 330° | 13 kt | Few |
9,700 |
10000 meters | 19° | 66° | 12° | 53° | 64% | 1015 mb | 451 ft | |
| 01-9월 | 09:00 | VFR | 340° | 9 kt | 10000 meters | 16° | 60° | 12° | 53° | 77% | 1015 mb | 91 ft | |||
| 01-9월 | 08:30 | VFR | 350° | 8 kt | 10000 meters | 16° | 60° | 11° | 51° | 72% | 1016 mb | 62 ft | |||
| 01-9월 | 08:00 | VFR | 360° | 6 kt | 10000 meters | 15° | 59° | 11° | 51° | 77% | 1016 mb | -58 ft | |||
| 01-9월 | 07:30 | VFR | 350° | 9 kt | 10000 meters | 15° | 59° | 11° | 51° | 77% | 1016 mb | -58 ft | |||
| 01-9월 | 07:00 | VFR | 340° | 11 kt | 10000 meters | 15° | 59° | 11° | 51° | 77% | 1016 mb | -58 ft | |||
| 01-9월 | 06:30 | VFR | 330° | 12 kt | 10000 meters | 15° | 59° | 10° | 50° | 72% | 1016 mb | -58 ft | |||
| 01-9월 | 06:00 | VFR | 330° | 14 kt | 10000 meters | 15° | 59° | 10° | 50° | 72% | 1016 mb | -58 ft | |||
| 01-9월 | 05:30 | VFR | 350° | 7 kt | 10000 meters | 15° | 59° | 11° | 51° | 77% | 1016 mb | -58 ft | |||
| 01-9월 | 05:00 | VFR | 30° | 5 kt | 10000 meters | 14° | 57° | 10° | 50° | 77% | 1016 mb | -178 ft | |||
| 01-9월 | 04:30 | VFR | 350° | 10 kt | 10000 meters | 14° | 57° | 10° | 50° | 77% | 1017 mb | -208 ft | |||
| 01-9월 | 04:00 | VFR | 350° | 10 kt | 10000 meters | 15° | 59° | 10° | 50° | 72% | 1017 mb | -88 ft | |||
| 01-9월 | 03:30 | VFR | 350° | 8 kt | 10000 meters | 14° | 57° | 10° | 50° | 77% | 1017 mb | -208 ft | |||
| 01-9월 | 03:00 | VFR | 350° | 9 kt | 10000 meters | 14° | 57° | 10° | 50° | 77% | 1018 mb | -238 ft | |||
| 01-9월 | 02:30 | VFR | 350° | 11 kt | 10000 meters | 14° | 57° | 10° | 50° | 77% | 1018 mb | -238 ft | |||
| 01-9월 | 02:00 | VFR | 340° | 11 kt | 10000 meters | 14° | 57° | 12° | 53° | 88% | 1019 mb | -267 ft | |||
| 01-9월 | 01:46 | VFR | 350° | 7 kt | 10000 meters | 12° | 53° | 12° | 53° | 100% | 1019 mb | -507 ft | |||
| 01-9월 | 01:30 | VFR | 230° | 3 kt | 10000 meters | 7° | 44° | 6° | 42° | 93% | 1020 mb | -1,137 ft | |||
| 01-9월 | 01:15 | VFR | 300° | 4 kt | 10000 meters | 7° | 44° | 6° | 42° | 93% | 1020 mb | -1,137 ft | |||
| 01-9월 | 01:00 | VFR | 360° | 4 kt | 10000 meters | 12° | 53° | 11° | 51° | 94% | 1020 mb | -537 ft | |||
| 01-9월 | 00:30 | VFR | 360° | 5 kt | 10000 meters | 11° | 51° | 10° | 50° | 94% | 1020 mb | -657 ft | |||
| 01-9월 | 00:00 | VFR | 360° | 5 kt | 10000 meters | 11° | 51° | 11° | 51° | 100% | 1021 mb | -686 ft |
로그인
| 귀하의 브라우저는 지원되지 않습니다.. 브라우저를 업그레이드하세요 |
